createdAt,value
2022-11-15T00:00:22.287Z,87.10
2022-11-15T00:03:08.261Z,59.30
2022-11-15T00:05:54.143Z,49.40
2022-11-15T00:08:40.138Z,46.20
2022-11-15T00:11:25.672Z,50.90
2022-11-15T00:14:11.531Z,62.40
2022-11-15T00:16:57.115Z,71.20
2022-11-15T00:19:42.648Z,59.20
2022-11-15T00:25:20.288Z,56.00
2022-11-15T00:28:05.975Z,50.20
2022-11-15T00:30:51.812Z,45.50
2022-11-15T00:33:37.600Z,46.70
2022-11-15T00:36:23.057Z,50.40
2022-11-15T00:39:08.819Z,49.60
2022-11-15T00:41:54.659Z,46.90
2022-11-15T00:44:40.546Z,46.00
2022-11-15T00:47:26.077Z,41.30
2022-11-15T00:53:01.365Z,49.90
2022-11-15T00:58:33.812Z,45.80
2022-11-15T01:01:19.492Z,45.00
2022-11-15T01:04:05.564Z,53.50
2022-11-15T01:09:37.267Z,51.80
2022-11-15T01:15:09.359Z,60.80
2022-11-15T01:17:55.960Z,56.10
2022-11-15T01:20:43.365Z,72.70
2022-11-15T01:23:29.264Z,57.50
2022-11-15T01:26:16.784Z,57.00
2022-11-15T01:29:02.593Z,56.70
2022-11-15T01:31:48.231Z,48.70
2022-11-15T01:34:34.194Z,53.60
2022-11-15T01:37:20.343Z,55.10
2022-11-15T01:40:06.879Z,55.70
2022-11-15T01:45:38.011Z,46.20
2022-11-15T01:48:33.553Z,53.60
2022-11-15T01:51:21.386Z,44.20
2022-11-15T01:54:13.523Z,60.60
2022-11-15T01:57:05.275Z,51.20
2022-11-15T01:59:51.652Z,65.10
2022-11-15T02:05:23.612Z,59.30
2022-11-15T02:10:55.954Z,67.80
2022-11-15T02:13:41.562Z,44.80
2022-11-15T02:16:48.265Z,51.10
2022-11-15T02:19:34.001Z,50.40
2022-11-15T02:22:36.433Z,45.10
2022-11-15T02:26:20.022Z,50.60
2022-11-15T02:29:21.145Z,53.50
2022-11-15T02:32:11.438Z,56.80
2022-11-15T02:35:41.258Z,48.10
2022-11-15T02:38:58.152Z,37.20
2022-11-15T02:42:35.291Z,38.30
2022-11-15T02:45:30.680Z,55.90
2022-11-15T02:48:18.285Z,49.70
2022-11-15T02:51:05.198Z,54.50
2022-11-15T02:53:50.919Z,52.10
2022-11-15T02:59:29.165Z,50.80
2022-11-15T03:02:37.048Z,52.00
2022-11-15T03:05:36.454Z,48.10
2022-11-15T03:08:31.484Z,56.90
2022-11-15T03:11:21.086Z,65.20
2022-11-15T03:14:15.750Z,67.50
2022-11-15T03:17:11.490Z,56.50
2022-11-15T03:20:00.004Z,72.10
2022-11-15T03:22:48.046Z,61.90
2022-11-15T03:25:35.955Z,56.60
2022-11-15T03:28:27.583Z,61.30
2022-11-15T03:31:34.980Z,45.90
2022-11-15T03:34:35.533Z,59.60
2022-11-15T03:37:26.032Z,76.70
2022-11-15T03:40:12.058Z,68.30
2022-11-15T03:43:11.712Z,64.40
2022-11-15T03:46:02.672Z,70.60
2022-11-15T03:48:53.349Z,62.20
2022-11-15T03:51:39.779Z,68.40
2022-11-15T03:54:25.487Z,63.20
2022-11-15T03:57:11.353Z,67.40
2022-11-15T03:59:56.807Z,62.40
2022-11-15T04:02:42.515Z,55.60
2022-11-15T04:05:28.510Z,55.20
2022-11-15T04:08:14.120Z,54.50
2022-11-15T04:11:02.258Z,61.40
2022-11-15T04:13:48.068Z,54.50
2022-11-15T04:16:33.585Z,51.80
2022-11-15T04:19:37.649Z,63.00
2022-11-15T04:22:41.483Z,61.90
2022-11-15T04:25:32.083Z,63.70
2022-11-15T04:28:18.252Z,61.40
2022-11-15T04:33:49.495Z,63.20
2022-11-15T04:36:53.947Z,70.00
2022-11-15T04:39:41.270Z,69.50
2022-11-15T04:42:27.134Z,69.50
2022-11-15T04:47:59.502Z,73.60
2022-11-15T04:50:45.232Z,81.70
2022-11-15T04:53:30.910Z,87.20
2022-11-15T04:56:16.635Z,78.70
2022-11-15T04:59:02.449Z,59.30
2022-11-15T05:04:34.563Z,52.70
2022-11-15T05:07:20.140Z,59.70
2022-11-15T05:10:06.548Z,70.90
2022-11-15T05:12:52.129Z,77.30
2022-11-15T05:15:37.560Z,69.70
2022-11-15T05:18:23.986Z,54.50
2022-11-15T05:21:12.101Z,65.10
2022-11-15T05:23:58.093Z,60.00
2022-11-15T05:26:44.085Z,53.40
2022-11-15T05:29:30.026Z,68.70
2022-11-15T05:32:15.921Z,62.60
2022-11-15T05:37:47.699Z,71.30
2022-11-15T05:40:35.609Z,69.00
2022-11-15T05:43:21.987Z,72.70
2022-11-15T05:46:07.984Z,61.20
2022-11-15T05:51:42.549Z,72.70
2022-11-15T05:54:28.592Z,71.90
2022-11-15T06:00:00.037Z,64.80
2022-11-15T06:05:31.819Z,70.90
2022-11-15T06:08:17.259Z,62.20
2022-11-15T06:11:07.389Z,52.90
2022-11-15T06:13:53.303Z,53.30
2022-11-15T06:16:38.786Z,48.30
2022-11-15T06:19:24.983Z,65.70
2022-11-15T06:22:10.978Z,80.40
2022-11-15T06:24:59.207Z,64.00
2022-11-15T06:27:55.908Z,73.60
2022-11-15T06:30:41.677Z,125.30
2022-11-15T06:33:27.252Z,55.60
2022-11-15T06:36:17.875Z,54.40
2022-11-15T06:39:05.222Z,81.90
2022-11-15T06:41:51.072Z,73.40
2022-11-15T06:47:23.037Z,66.10
2022-11-15T06:50:09.355Z,57.20
2022-11-15T06:52:55.706Z,54.50
2022-11-15T06:55:41.639Z,52.30
2022-11-15T07:01:14.290Z,54.50
2022-11-15T07:04:00.192Z,48.60
2022-11-15T07:06:50.548Z,51.90
2022-11-15T07:09:36.371Z,67.20
2022-11-15T07:12:22.391Z,55.20
2022-11-15T07:15:08.599Z,60.00
2022-11-15T07:20:40.904Z,86.60
2022-11-15T07:23:26.693Z,75.50
2022-11-15T07:26:12.455Z,81.40
2022-11-15T07:28:58.422Z,91.00
2022-11-15T07:34:30.406Z,61.40
2022-11-15T07:37:17.885Z,71.30
2022-11-15T07:40:04.119Z,107.80
2022-11-15T07:42:56.887Z,94.40
2022-11-15T07:45:44.436Z,179.50
2022-11-15T07:48:42.830Z,311.40
2022-11-15T07:51:29.479Z,169.70
2022-11-15T07:54:14.906Z,75.00
2022-11-15T07:57:06.701Z,72.00
2022-11-15T07:59:53.241Z,64.80
2022-11-15T08:02:39.449Z,109.00
2022-11-15T08:08:12.186Z,838.50
2022-11-15T08:11:01.439Z,900.40
2022-11-15T08:13:47.401Z,233.70
2022-11-15T08:16:33.346Z,406.60
2022-11-15T08:19:19.030Z,185.10
2022-11-15T08:24:50.886Z,127.80
2022-11-15T08:27:36.957Z,66.40
2022-11-15T08:30:23.324Z,66.50
2022-11-15T08:33:13.118Z,56.40
2022-11-15T08:36:02.149Z,61.20
2022-11-15T08:38:47.892Z,56.40
2022-11-15T08:41:37.338Z,76.70
2022-11-15T08:44:23.505Z,59.90
2022-11-15T08:47:12.648Z,53.10
2022-11-15T08:49:58.563Z,50.20
2022-11-15T08:55:29.882Z,56.00
2022-11-15T08:58:15.336Z,62.60
2022-11-15T09:03:47.280Z,58.50
2022-11-15T09:06:33.060Z,52.30
2022-11-15T09:09:18.570Z,46.60
2022-11-15T09:12:04.616Z,52.10
2022-11-15T09:17:35.746Z,54.10
2022-11-15T09:20:22.003Z,72.60
2022-11-15T09:26:00.253Z,48.70
2022-11-15T09:28:45.936Z,82.20
2022-11-15T09:31:32.340Z,90.80
2022-11-15T09:34:18.053Z,96.20
2022-11-15T09:39:49.625Z,89.70
2022-11-15T09:42:51.182Z,72.10
2022-11-15T09:45:52.445Z,66.50
2022-11-15T09:49:00.363Z,60.00
2022-11-15T09:51:51.010Z,64.70
2022-11-15T09:57:40.052Z,62.70
2022-11-15T10:00:46.917Z,72.10
2022-11-15T10:03:16.647Z,67.30
2022-11-15T10:05:46.765Z,89.20
2022-11-15T10:08:26.049Z,83.10
2022-11-15T10:11:22.592Z,69.50
2022-11-15T10:13:51.609Z,61.60
2022-11-15T10:16:51.450Z,84.30
2022-11-15T10:19:54.542Z,79.80
2022-11-15T10:22:31.122Z,82.30
2022-11-15T10:25:04.408Z,81.50
2022-11-15T10:27:31.506Z,78.10
2022-11-15T10:29:58.505Z,61.90
2022-11-15T10:32:26.500Z,56.60
2022-11-15T10:34:53.849Z,59.20
2022-11-15T10:37:30.427Z,62.50
2022-11-15T10:40:26.685Z,62.90
2022-11-15T10:43:13.638Z,46.50
2022-11-15T10:45:40.854Z,54.60
2022-11-15T10:48:26.331Z,61.30
2022-11-15T10:50:55.506Z,50.90
2022-11-15T10:53:28.084Z,72.60
2022-11-15T10:55:58.997Z,150.90
2022-11-15T10:58:33.429Z,150.50
2022-11-15T11:01:46.391Z,222.70
2022-11-15T11:04:14.083Z,107.50
2022-11-15T11:06:51.531Z,101.80
2022-11-15T11:09:38.743Z,88.90
2022-11-15T11:12:10.833Z,68.40
2022-11-15T11:14:40.525Z,68.80
2022-11-15T11:17:36.856Z,77.30
2022-11-15T11:20:09.870Z,77.60
2022-11-15T11:23:03.567Z,73.70
2022-11-15T11:25:39.191Z,65.90
2022-11-15T11:30:42.376Z,75.60
2022-11-15T11:33:23.534Z,67.70
2022-11-15T11:36:25.240Z,77.80
2022-11-15T11:38:56.147Z,103.50
2022-11-15T11:41:52.616Z,85.00
2022-11-15T11:44:39.684Z,74.50
2022-11-15T11:47:20.427Z,86.20
2022-11-15T11:49:57.613Z,63.20
2022-11-15T11:52:34.849Z,64.60
2022-11-15T11:55:17.210Z,59.20
2022-11-15T11:57:53.269Z,74.00
2022-11-15T12:00:23.033Z,63.20
2022-11-15T12:03:12.893Z,72.10
2022-11-15T12:05:42.805Z,77.20
2022-11-15T12:08:28.866Z,67.60
2022-11-15T12:13:35.746Z,102.90
2022-11-15T12:16:13.799Z,66.00
2022-11-15T12:18:45.769Z,67.20
2022-11-15T12:21:34.954Z,78.20
2022-11-15T12:24:08.058Z,112.50
2022-11-15T12:26:46.704Z,172.60
2022-11-15T12:29:22.059Z,105.10
2022-11-15T12:31:52.765Z,86.60
2022-11-15T12:34:25.344Z,135.80
2022-11-15T12:36:52.951Z,105.10
2022-11-15T12:39:20.594Z,114.90
2022-11-15T12:41:56.601Z,104.60
2022-11-15T12:44:32.688Z,106.10
2022-11-15T12:47:04.421Z,107.00
2022-11-15T12:49:31.442Z,75.70
2022-11-15T12:51:58.469Z,75.50
2022-11-15T12:54:25.512Z,69.80
2022-11-15T12:57:05.009Z,69.60
2022-11-15T13:00:05.411Z,98.00
2022-11-15T13:02:48.542Z,79.20
2022-11-15T13:05:15.715Z,105.90
2022-11-15T13:07:42.786Z,111.20
2022-11-15T13:10:12.905Z,134.50
2022-11-15T13:12:42.638Z,130.40
2022-11-15T13:15:12.656Z,96.70
2022-11-15T13:17:44.006Z,94.30
2022-11-15T13:20:16.620Z,77.90
2022-11-15T13:22:53.441Z,79.60
2022-11-15T13:25:49.109Z,77.80
2022-11-15T13:28:16.109Z,79.80
2022-11-15T13:30:56.952Z,76.30
2022-11-15T13:33:35.690Z,99.90
2022-11-15T13:36:10.300Z,97.20
2022-11-15T13:38:39.884Z,86.00
2022-11-15T13:41:21.374Z,77.10
2022-11-15T13:43:49.999Z,87.40
2022-11-15T13:46:19.739Z,131.80
2022-11-15T13:48:51.983Z,110.20
2022-11-15T13:51:28.912Z,208.30
2022-11-15T13:54:05.077Z,193.20
2022-11-15T13:56:35.093Z,162.10
2022-11-15T13:59:10.616Z,134.60
2022-11-15T14:01:38.411Z,83.60
2022-11-15T14:04:05.537Z,79.10
2022-11-15T14:06:33.065Z,117.00
2022-11-15T14:09:12.514Z,148.90
2022-11-15T14:11:52.069Z,227.50
2022-11-15T14:14:21.933Z,138.10
2022-11-15T14:17:00.743Z,85.60
2022-11-15T14:19:27.733Z,87.80
2022-11-15T14:22:15.878Z,95.10
2022-11-15T14:24:46.166Z,137.40
2022-11-15T14:27:28.122Z,137.90
2022-11-15T14:29:55.835Z,145.40
2022-11-15T14:32:27.087Z,206.50
2022-11-15T14:35:03.273Z,142.60
2022-11-15T14:37:35.630Z,153.30
2022-11-15T14:40:04.832Z,126.70
2022-11-15T14:42:32.074Z,137.50
2022-11-15T14:44:59.353Z,109.80
2022-11-15T14:47:26.521Z,127.00
2022-11-15T14:49:53.605Z,116.70
2022-11-15T14:52:20.620Z,95.30
2022-11-15T14:54:47.666Z,75.10
2022-11-15T14:57:14.713Z,79.80
2022-11-15T14:59:41.761Z,91.70
2022-11-15T15:02:22.711Z,122.20
2022-11-15T15:04:50.941Z,130.90
2022-11-15T15:07:19.074Z,111.40
2022-11-15T15:09:46.650Z,81.70
2022-11-15T15:12:16.638Z,70.90
2022-11-15T15:14:43.764Z,78.10
2022-11-15T15:17:11.222Z,61.90
2022-11-15T15:19:38.345Z,53.20
2022-11-15T15:22:05.879Z,63.90
2022-11-15T15:24:33.159Z,156.90
2022-11-15T15:27:00.285Z,96.80
2022-11-15T15:29:28.964Z,89.70
2022-11-15T15:31:55.994Z,157.30
2022-11-15T15:34:23.154Z,163.40
2022-11-15T15:36:50.313Z,186.10
2022-11-15T15:39:17.339Z,110.00
2022-11-15T15:41:44.366Z,97.20
2022-11-15T15:44:11.535Z,92.40
2022-11-15T15:46:38.575Z,87.10
2022-11-15T15:49:05.585Z,67.30
2022-11-15T15:51:32.664Z,59.30
2022-11-15T15:53:59.660Z,86.80
2022-11-15T15:56:26.730Z,58.60
2022-11-15T15:58:53.828Z,80.20
2022-11-15T16:01:20.903Z,92.90
2022-11-15T16:03:48.059Z,176.90
2022-11-15T16:06:36.350Z,99.90
2022-11-15T16:09:20.223Z,112.70
2022-11-15T16:11:48.167Z,79.90
2022-11-15T16:14:15.314Z,53.80
2022-11-15T16:16:42.387Z,43.20
2022-11-15T16:19:11.532Z,72.00
2022-11-15T16:21:38.540Z,83.10
2022-11-15T16:24:05.808Z,71.60
2022-11-15T16:26:35.981Z,190.10
2022-11-15T16:29:03.280Z,134.80
2022-11-15T16:31:30.363Z,172.20
2022-11-15T16:33:57.496Z,88.90
2022-11-15T16:36:30.238Z,114.30
2022-11-15T16:38:59.056Z,123.80
2022-11-15T16:41:26.762Z,82.30
2022-11-15T16:43:54.513Z,75.40
2022-11-15T16:46:26.165Z,111.50
2022-11-15T16:48:56.934Z,116.50
2022-11-15T16:51:24.156Z,112.50
2022-11-15T16:53:51.407Z,103.60
2022-11-15T16:56:27.133Z,85.40
2022-11-15T16:58:55.563Z,89.00
2022-11-15T17:01:26.778Z,74.80
2022-11-15T17:03:54.932Z,68.30
2022-11-15T17:06:23.235Z,61.90
2022-11-15T17:08:50.334Z,40.40
2022-11-15T17:11:19.928Z,47.10
2022-11-15T17:13:48.809Z,46.10
2022-11-15T17:16:18.375Z,64.60
2022-11-15T17:18:45.854Z,110.20
2022-11-15T17:21:21.360Z,111.00
2022-11-15T17:23:48.829Z,60.00
2022-11-15T17:26:35.068Z,85.50
2022-11-15T17:29:04.685Z,92.20
2022-11-15T17:31:33.888Z,62.40
2022-11-15T17:34:02.595Z,52.60
2022-11-15T17:36:29.955Z,154.30
2022-11-15T17:38:59.741Z,113.00
2022-11-15T17:41:28.154Z,70.70
2022-11-15T17:44:00.145Z,70.90
2022-11-15T17:46:28.753Z,101.50
2022-11-15T17:48:57.085Z,57.50
2022-11-15T17:51:24.377Z,121.30
2022-11-15T17:53:51.908Z,70.70
2022-11-15T17:56:21.161Z,103.70
2022-11-15T17:58:54.555Z,138.60
2022-11-15T18:01:26.012Z,101.50
2022-11-15T18:03:54.028Z,41.50
2022-11-15T18:06:22.646Z,51.70
2022-11-15T18:08:51.914Z,64.40
2022-11-15T18:11:22.267Z,34.00
2022-11-15T18:13:54.534Z,24.40
2022-11-15T18:16:25.433Z,88.50
2022-11-15T18:18:53.416Z,53.40
2022-11-15T18:21:26.303Z,31.80
2022-11-15T18:23:55.834Z,45.70
2022-11-15T18:26:27.203Z,47.10
2022-11-15T18:28:57.616Z,70.10
2022-11-15T18:31:31.012Z,53.10
2022-11-15T18:34:01.262Z,64.40
2022-11-15T18:36:30.632Z,52.30
2022-11-15T18:39:02.601Z,66.60
2022-11-15T18:41:31.001Z,53.70
2022-11-15T18:44:00.931Z,54.00
2022-11-15T18:46:32.705Z,50.30
2022-11-15T18:49:02.002Z,64.40
2022-11-15T18:51:31.034Z,74.70
2022-11-15T18:54:01.110Z,36.10
2022-11-15T18:56:30.115Z,58.60
2022-11-15T18:58:59.743Z,57.70
2022-11-15T19:01:29.277Z,50.20
2022-11-15T19:03:58.476Z,81.10
2022-11-15T19:06:27.775Z,61.00
2022-11-15T19:08:56.568Z,39.40
2022-11-15T19:11:28.863Z,57.80
2022-11-15T19:13:58.010Z,39.70
2022-11-15T19:16:28.142Z,37.60
2022-11-15T19:18:56.897Z,155.20
2022-11-15T19:21:25.477Z,177.40
2022-11-15T19:23:54.300Z,211.00
2022-11-15T19:26:22.949Z,128.40
2022-11-15T19:28:55.428Z,62.90
2022-11-15T19:31:24.010Z,75.90
2022-11-15T19:33:52.903Z,92.40
2022-11-15T19:36:26.980Z,164.20
2022-11-15T19:38:54.501Z,97.70
2022-11-15T19:41:23.776Z,163.10
2022-11-15T19:43:51.769Z,101.80
2022-11-15T19:46:23.731Z,77.60
2022-11-15T19:48:51.856Z,45.50
2022-11-15T19:51:23.974Z,47.40
2022-11-15T19:53:56.321Z,46.30
2022-11-15T19:56:23.947Z,43.50
2022-11-15T19:58:53.055Z,42.20
2022-11-15T20:01:25.905Z,39.80
2022-11-15T20:03:55.161Z,36.90
2022-11-15T20:06:26.800Z,39.30
2022-11-15T20:08:54.122Z,50.30
2022-11-15T20:11:21.276Z,164.90
2022-11-15T20:13:48.629Z,136.10
2022-11-15T20:16:21.001Z,167.70
2022-11-15T20:18:49.386Z,134.30
2022-11-15T20:21:17.101Z,101.60
2022-11-15T20:23:44.812Z,303.00
2022-11-15T20:26:12.581Z,117.80
2022-11-15T20:28:40.393Z,159.10
2022-11-15T20:31:08.619Z,120.00
2022-11-15T20:33:35.688Z,186.00
2022-11-15T20:36:06.733Z,142.90
2022-11-15T20:38:34.900Z,209.90
2022-11-15T20:41:02.234Z,126.60
2022-11-15T20:43:29.232Z,197.00
2022-11-15T20:45:56.486Z,130.30
2022-11-15T20:48:23.515Z,49.50
2022-11-15T20:50:50.659Z,86.20
2022-11-15T20:53:19.754Z,192.60
2022-11-15T20:55:49.645Z,270.30
2022-11-15T20:58:17.443Z,139.20
2022-11-15T21:00:46.214Z,95.20
2022-11-15T21:03:14.576Z,302.60
2022-11-15T21:05:43.884Z,381.20
2022-11-15T21:08:12.438Z,325.50
2022-11-15T21:10:59.659Z,107.00
2022-11-15T21:13:27.117Z,82.10
2022-11-15T21:15:58.065Z,82.70
2022-11-15T21:18:25.641Z,110.90
2022-11-15T21:20:53.846Z,73.20
2022-11-15T21:23:21.683Z,107.20
2022-11-15T21:25:52.445Z,115.00
2022-11-15T21:28:19.569Z,152.80
2022-11-15T21:30:56.166Z,195.00
2022-11-15T21:33:24.083Z,135.90
2022-11-15T21:35:51.671Z,113.50
2022-11-15T21:38:18.896Z,114.00
2022-11-15T21:40:46.154Z,88.70
2022-11-15T21:43:13.199Z,84.80
2022-11-15T21:45:40.296Z,63.40
2022-11-15T21:48:08.471Z,141.00
2022-11-15T21:50:35.563Z,102.70
2022-11-15T21:53:02.670Z,119.70
2022-11-15T21:55:29.744Z,78.60
2022-11-15T21:57:56.767Z,206.80
2022-11-15T22:00:42.527Z,203.60
2022-11-15T22:03:09.705Z,246.70
2022-11-15T22:05:36.973Z,294.80
2022-11-15T22:08:04.191Z,195.70
2022-11-15T22:10:31.207Z,153.50
2022-11-15T22:12:58.337Z,103.10
2022-11-15T22:15:25.310Z,54.00
2022-11-15T22:17:58.032Z,62.60
2022-11-15T22:23:12.694Z,89.50
2022-11-15T22:25:39.825Z,174.80
2022-11-15T22:28:06.816Z,208.00
2022-11-15T22:30:33.867Z,167.40
2022-11-15T22:33:00.991Z,128.80
2022-11-15T22:35:28.377Z,78.00
2022-11-15T22:37:55.654Z,110.70
2022-11-15T22:40:22.810Z,187.00
2022-11-15T22:42:49.950Z,115.90
2022-11-15T22:45:19.687Z,91.60
2022-11-15T22:47:48.991Z,67.30
2022-11-15T22:50:16.587Z,126.30
2022-11-15T22:52:43.880Z,75.90
2022-11-15T22:55:11.541Z,85.70
2022-11-15T22:57:38.590Z,125.50
2022-11-15T23:00:12.089Z,182.40
2022-11-15T23:02:39.161Z,165.00
2022-11-15T23:05:06.594Z,137.70
2022-11-15T23:07:34.478Z,80.90
2022-11-15T23:10:20.403Z,84.70
2022-11-15T23:13:06.265Z,66.80
2022-11-15T23:15:52.287Z,58.20
2022-11-15T23:18:19.666Z,48.40
2022-11-15T23:20:47.003Z,50.40
2022-11-15T23:23:14.094Z,150.50
2022-11-15T23:25:41.245Z,103.40
2022-11-15T23:28:08.446Z,82.60
2022-11-15T23:30:54.949Z,107.20
2022-11-15T23:33:41.303Z,124.70
2022-11-15T23:36:08.863Z,77.40
2022-11-15T23:38:37.628Z,55.70
2022-11-15T23:41:06.056Z,43.70
2022-11-15T23:43:33.181Z,60.60
2022-11-15T23:46:01.689Z,120.50
2022-11-15T23:48:29.021Z,175.10
2022-11-15T23:50:56.221Z,83.70
2022-11-15T23:53:23.930Z,114.40
2022-11-15T23:55:58.097Z,112.30
2022-11-15T23:58:25.146Z,83.60
